createdAt,value
2023-03-29T00:00:21.175Z,74.14
2023-03-29T00:02:55.772Z,74.83
2023-03-29T00:05:28.316Z,73.89
2023-03-29T00:08:03.358Z,73.88
2023-03-29T00:10:36.335Z,73.98
2023-03-29T00:13:08.704Z,74.21
2023-03-29T00:15:41.789Z,73.33
2023-03-29T00:18:14.767Z,74.71
2023-03-29T00:20:54.169Z,74.81
2023-03-29T00:23:26.850Z,73.17
2023-03-29T00:25:59.261Z,72.55
2023-03-29T00:28:31.632Z,71.59
2023-03-29T00:31:06.318Z,71.63
2023-03-29T00:33:40.661Z,70.38
2023-03-29T00:36:15.414Z,70.45
2023-03-29T00:38:47.972Z,68.34
2023-03-29T00:41:20.955Z,69.42
2023-03-29T00:43:56.264Z,70.17
2023-03-29T00:46:30.417Z,70.72
2023-03-29T00:49:08.875Z,70.59
2023-03-29T00:51:42.579Z,71.11
2023-03-29T00:54:18.904Z,71.60
2023-03-29T00:56:51.773Z,72.44
2023-03-29T00:59:28.180Z,73.12
2023-03-29T01:02:02.883Z,72.54
2023-03-29T01:04:40.985Z,71.97
2023-03-29T01:07:20.519Z,73.57
2023-03-29T01:09:55.495Z,73.24
2023-03-29T01:12:32.082Z,74.33
2023-03-29T01:15:09.620Z,73.70
2023-03-29T01:17:46.564Z,73.02
2023-03-29T01:20:26.816Z,74.15
2023-03-29T01:23:13.346Z,72.93
2023-03-29T01:26:01.062Z,74.07
2023-03-29T01:28:38.757Z,73.31
2023-03-29T01:31:16.498Z,74.04
2023-03-29T01:33:51.756Z,73.55
2023-03-29T01:36:29.126Z,73.17
2023-03-29T01:39:06.512Z,72.06
2023-03-29T01:41:46.612Z,72.56
2023-03-29T01:44:27.228Z,73.08
2023-03-29T01:47:07.293Z,74.08
2023-03-29T01:49:44.661Z,74.27
2023-03-29T01:52:22.822Z,74.27
2023-03-29T01:55:02.722Z,73.01
2023-03-29T01:57:36.912Z,73.88
2023-03-29T02:00:15.259Z,72.68
2023-03-29T02:02:49.949Z,72.65
2023-03-29T02:05:25.855Z,72.15
2023-03-29T02:08:00.270Z,71.48
2023-03-29T02:10:34.876Z,70.95
2023-03-29T02:13:08.654Z,71.03
2023-03-29T02:15:44.089Z,71.03
2023-03-29T02:18:18.008Z,71.03
2023-03-29T02:20:51.976Z,70.70
2023-03-29T02:23:33.350Z,69.41
2023-03-29T02:26:06.371Z,69.79
2023-03-29T02:28:38.663Z,69.85
2023-03-29T02:31:16.595Z,71.49
2023-03-29T02:33:54.169Z,70.80
2023-03-29T02:36:31.737Z,70.12
2023-03-29T02:39:05.656Z,70.07
2023-03-29T02:41:39.993Z,70.34
2023-03-29T02:44:17.898Z,70.70
2023-03-29T02:46:55.920Z,70.40
2023-03-29T02:49:28.744Z,70.62
2023-03-29T02:52:08.908Z,71.65
2023-03-29T02:54:44.600Z,71.67
2023-03-29T02:57:17.431Z,72.57
2023-03-29T02:59:49.744Z,73.44
2023-03-29T03:02:25.031Z,74.25
2023-03-29T03:04:59.362Z,73.45
2023-03-29T03:07:33.063Z,73.00
2023-03-29T03:10:07.077Z,73.08
2023-03-29T03:12:42.282Z,72.64
2023-03-29T03:15:14.673Z,73.62
2023-03-29T03:17:48.536Z,73.99
2023-03-29T03:20:21.607Z,74.23
2023-03-29T03:22:53.908Z,74.88
2023-03-29T03:25:28.048Z,74.17
2023-03-29T03:28:00.935Z,72.33
2023-03-29T03:30:33.947Z,71.72
2023-03-29T03:33:36.466Z,72.25
2023-03-29T03:36:40.080Z,70.00
2023-03-29T03:39:12.805Z,70.76
2023-03-29T03:41:45.329Z,69.36
2023-03-29T03:44:17.826Z,69.34
2023-03-29T03:46:52.852Z,68.61
2023-03-29T03:49:26.046Z,68.01
2023-03-29T03:51:58.507Z,68.00
2023-03-29T03:54:31.390Z,66.86
2023-03-29T03:57:24.121Z,67.58
2023-03-29T03:59:57.037Z,66.99
2023-03-29T04:02:45.894Z,65.94
2023-03-29T04:05:19.486Z,66.07
2023-03-29T04:07:51.965Z,64.35
2023-03-29T04:10:34.436Z,65.15
2023-03-29T04:13:27.335Z,63.93
2023-03-29T04:16:28.946Z,65.46
2023-03-29T04:19:06.741Z,64.60
2023-03-29T04:21:40.091Z,64.75
2023-03-29T04:24:12.977Z,64.94
2023-03-29T04:26:48.265Z,65.08
2023-03-29T04:29:26.812Z,66.42
2023-03-29T04:32:09.110Z,66.28
2023-03-29T04:34:50.015Z,67.14
2023-03-29T04:37:23.045Z,66.94
2023-03-29T04:39:59.675Z,67.84
2023-03-29T04:42:34.578Z,65.87
2023-03-29T04:45:08.021Z,67.10
2023-03-29T04:48:00.173Z,67.58
2023-03-29T04:50:32.873Z,66.04
2023-03-29T04:53:06.723Z,66.05
2023-03-29T04:55:39.277Z,66.69
2023-03-29T04:58:14.262Z,66.28
2023-03-29T05:00:47.755Z,65.46
2023-03-29T05:03:30.207Z,65.98
2023-03-29T05:06:11.448Z,65.23
2023-03-29T05:08:45.402Z,64.46
2023-03-29T05:11:27.076Z,64.33
2023-03-29T05:14:02.514Z,64.90
2023-03-29T05:16:37.856Z,65.50
2023-03-29T05:19:12.360Z,65.74
2023-03-29T05:21:50.300Z,65.97
2023-03-29T05:24:27.045Z,63.86
2023-03-29T05:27:04.550Z,63.94
2023-03-29T05:29:39.692Z,64.25
2023-03-29T05:32:27.417Z,63.43
2023-03-29T05:34:59.958Z,63.95
2023-03-29T05:37:33.674Z,64.24
2023-03-29T05:40:09.517Z,64.56
2023-03-29T05:42:58.867Z,62.74
2023-03-29T05:45:33.162Z,62.94
2023-03-29T05:48:06.181Z,62.17
2023-03-29T05:50:39.334Z,63.85
2023-03-29T05:53:12.298Z,62.82
2023-03-29T05:55:45.952Z,63.78
2023-03-29T05:58:20.836Z,64.58
2023-03-29T06:00:54.931Z,64.82
2023-03-29T06:03:55.490Z,63.97
2023-03-29T06:06:32.124Z,64.67
2023-03-29T06:09:05.416Z,65.01
2023-03-29T06:11:46.934Z,65.61
2023-03-29T06:14:28.939Z,64.50
2023-03-29T06:17:12.878Z,63.36
2023-03-29T06:19:45.580Z,63.35
2023-03-29T06:22:18.065Z,62.26
2023-03-29T06:24:51.532Z,61.54
2023-03-29T06:27:35.758Z,62.67
2023-03-29T06:30:09.027Z,62.69
2023-03-29T06:32:42.941Z,61.23
2023-03-29T06:35:37.276Z,61.26
2023-03-29T06:38:14.690Z,61.12
2023-03-29T06:41:10.764Z,59.99
2023-03-29T06:44:04.960Z,60.47
2023-03-29T06:46:41.724Z,58.93
2023-03-29T06:49:14.661Z,56.89
2023-03-29T06:51:54.273Z,57.54
2023-03-29T06:54:26.829Z,58.43
2023-03-29T06:57:07.164Z,57.62
2023-03-29T06:59:40.550Z,58.29
2023-03-29T07:02:18.978Z,57.46
2023-03-29T07:05:12.962Z,57.08
2023-03-29T07:07:54.463Z,56.72
2023-03-29T07:10:48.265Z,55.06
2023-03-29T07:13:51.444Z,56.48
2023-03-29T07:16:26.517Z,54.83
2023-03-29T07:19:04.204Z,52.52
2023-03-29T07:21:55.430Z,52.82
2023-03-29T07:24:36.770Z,55.28
2023-03-29T07:27:09.161Z,53.98
2023-03-29T07:29:41.619Z,53.31
2023-03-29T07:32:15.034Z,50.94
2023-03-29T07:34:48.494Z,49.80
2023-03-29T07:37:39.670Z,48.93
2023-03-29T07:40:17.003Z,49.08
2023-03-29T07:43:10.384Z,50.49
2023-03-29T07:45:43.983Z,52.13
2023-03-29T07:48:18.908Z,51.18
2023-03-29T07:50:56.055Z,49.32
2023-03-29T07:53:34.209Z,48.33
2023-03-29T07:56:09.756Z,48.67
2023-03-29T07:58:53.261Z,47.76
2023-03-29T08:01:25.843Z,47.71
2023-03-29T08:04:16.217Z,49.10
2023-03-29T08:07:08.172Z,47.95
2023-03-29T08:09:59.995Z,47.30
2023-03-29T08:12:47.111Z,46.62
2023-03-29T08:15:19.649Z,45.24
2023-03-29T08:17:52.457Z,45.21
2023-03-29T08:20:25.777Z,44.73
2023-03-29T08:23:01.417Z,45.17
2023-03-29T08:25:56.797Z,44.26
2023-03-29T08:28:29.188Z,45.55
2023-03-29T08:31:02.232Z,44.11
2023-03-29T08:33:34.942Z,44.14
2023-03-29T08:36:34.452Z,42.84
2023-03-29T08:39:14.482Z,44.05
2023-03-29T08:42:03.436Z,43.19
2023-03-29T08:44:48.509Z,43.44
2023-03-29T08:47:32.189Z,43.11
2023-03-29T08:50:06.885Z,43.52
2023-03-29T08:52:52.252Z,41.83
2023-03-29T08:55:52.792Z,41.92
2023-03-29T08:58:49.622Z,43.90
2023-03-29T09:01:24.070Z,40.58
2023-03-29T09:04:06.329Z,41.00
2023-03-29T09:06:58.817Z,40.66
2023-03-29T09:09:38.973Z,41.23
2023-03-29T09:12:30.104Z,38.48
2023-03-29T09:15:10.840Z,37.79
2023-03-29T09:17:58.503Z,37.83
2023-03-29T09:20:40.803Z,40.61
2023-03-29T09:23:30.606Z,38.29
2023-03-29T09:26:30.778Z,37.85
2023-03-29T09:29:33.746Z,36.81
2023-03-29T09:32:17.288Z,39.86
2023-03-29T09:35:01.006Z,36.36
2023-03-29T09:37:38.224Z,37.92
2023-03-29T09:40:13.464Z,36.64
2023-03-29T09:43:00.268Z,38.26
2023-03-29T09:45:35.000Z,34.83
2023-03-29T09:48:12.765Z,36.51
2023-03-29T09:50:50.601Z,35.82
2023-03-29T09:53:24.406Z,36.12
2023-03-29T09:56:07.760Z,34.98
2023-03-29T09:59:01.450Z,35.68
2023-03-29T10:01:37.001Z,36.98
2023-03-29T10:04:11.918Z,36.98
2023-03-29T10:06:48.895Z,37.13
2023-03-29T10:09:24.008Z,35.35
2023-03-29T10:12:06.067Z,34.70
2023-03-29T10:14:44.511Z,33.48
2023-03-29T10:17:21.095Z,32.66
2023-03-29T10:19:57.240Z,32.83
2023-03-29T10:22:34.325Z,32.40
2023-03-29T10:25:28.424Z,32.90
2023-03-29T10:28:06.305Z,33.07
2023-03-29T10:30:39.683Z,28.70
2023-03-29T10:33:18.426Z,30.12
2023-03-29T10:35:51.308Z,31.35
2023-03-29T10:38:27.672Z,30.58
2023-03-29T10:41:06.148Z,30.75
2023-03-29T10:43:42.595Z,30.39
2023-03-29T10:46:42.436Z,30.06
2023-03-29T10:49:20.317Z,29.52
2023-03-29T10:51:52.691Z,30.61
2023-03-29T10:54:25.169Z,30.08
2023-03-29T10:57:02.994Z,28.43
2023-03-29T10:59:44.271Z,28.91
2023-03-29T11:02:45.426Z,28.44
2023-03-29T11:05:24.975Z,28.25
2023-03-29T11:08:19.325Z,28.61
2023-03-29T11:11:03.272Z,29.09
2023-03-29T11:13:46.695Z,30.00
2023-03-29T11:16:29.903Z,30.52
2023-03-29T11:19:20.405Z,28.82
2023-03-29T11:21:59.809Z,28.79
2023-03-29T11:24:51.779Z,28.11
2023-03-29T11:27:34.409Z,28.72
2023-03-29T11:30:17.540Z,28.13
2023-03-29T11:33:01.005Z,29.18
2023-03-29T11:35:43.933Z,29.24
2023-03-29T11:38:24.588Z,26.45
2023-03-29T11:41:02.993Z,28.88
2023-03-29T11:43:40.699Z,26.69
2023-03-29T11:46:19.002Z,27.23
2023-03-29T11:48:58.664Z,26.72
2023-03-29T11:51:35.769Z,27.22
2023-03-29T11:54:17.744Z,29.46
2023-03-29T11:56:55.146Z,28.72
2023-03-29T11:59:34.352Z,28.43
2023-03-29T12:02:14.792Z,30.13
2023-03-29T12:04:52.319Z,27.75
2023-03-29T12:07:29.871Z,28.24
2023-03-29T12:10:08.439Z,27.32
2023-03-29T12:12:44.592Z,29.48
2023-03-29T12:15:19.777Z,28.99
2023-03-29T12:18:02.521Z,27.81
2023-03-29T12:20:38.410Z,27.85
2023-03-29T12:23:15.833Z,26.53
2023-03-29T12:25:57.279Z,27.26
2023-03-29T12:28:54.629Z,26.86
2023-03-29T12:31:36.133Z,28.28
2023-03-29T12:34:35.580Z,28.77
2023-03-29T12:37:37.527Z,26.66
2023-03-29T12:40:42.491Z,27.39
2023-03-29T12:43:38.456Z,28.55
2023-03-29T12:46:34.932Z,30.32
2023-03-29T12:49:14.612Z,28.30
2023-03-29T12:51:47.384Z,28.01
2023-03-29T12:54:22.611Z,25.86
2023-03-29T12:56:57.696Z,26.85
2023-03-29T12:59:43.852Z,27.49
2023-03-29T13:02:27.136Z,25.68
2023-03-29T13:05:00.438Z,26.29
2023-03-29T13:07:46.404Z,27.35
2023-03-29T13:10:39.200Z,26.08
2023-03-29T13:13:17.327Z,26.32
2023-03-29T13:15:50.246Z,26.67
2023-03-29T13:18:33.325Z,28.48
2023-03-29T13:21:16.592Z,27.42
2023-03-29T13:23:58.978Z,27.07
2023-03-29T13:26:54.523Z,27.77
2023-03-29T13:29:58.956Z,25.97
2023-03-29T13:32:51.792Z,24.69
2023-03-29T13:35:36.150Z,26.72
2023-03-29T13:38:17.943Z,27.27
2023-03-29T13:41:02.196Z,26.64
2023-03-29T13:43:37.037Z,25.55
2023-03-29T13:46:22.354Z,26.80
2023-03-29T13:49:04.800Z,25.91
2023-03-29T13:51:39.682Z,26.16
2023-03-29T13:54:24.412Z,26.12
2023-03-29T13:57:03.434Z,26.30
2023-03-29T13:59:44.604Z,25.85
2023-03-29T14:02:30.802Z,25.28
2023-03-29T14:05:06.051Z,25.64
2023-03-29T14:07:44.185Z,26.76
2023-03-29T14:10:21.109Z,25.79
2023-03-29T14:12:56.142Z,25.38
2023-03-29T14:15:42.179Z,26.38
2023-03-29T14:18:18.839Z,26.43
2023-03-29T14:20:54.313Z,26.66
2023-03-29T14:23:29.980Z,25.38
2023-03-29T14:26:06.242Z,25.82
2023-03-29T14:28:45.272Z,25.28
2023-03-29T14:31:18.998Z,26.17
2023-03-29T14:33:52.939Z,26.29
2023-03-29T14:36:26.786Z,26.66
2023-03-29T14:39:04.666Z,25.19
2023-03-29T14:41:38.043Z,24.57
2023-03-29T14:44:13.731Z,26.25
2023-03-29T14:46:46.506Z,25.64
2023-03-29T14:49:22.251Z,25.01
2023-03-29T14:51:55.057Z,25.51
2023-03-29T14:54:31.284Z,26.01
2023-03-29T14:57:06.551Z,25.92
2023-03-29T14:59:42.004Z,25.75
2023-03-29T15:02:25.860Z,24.83
2023-03-29T15:05:02.519Z,27.91
2023-03-29T15:07:36.155Z,27.14
2023-03-29T15:10:17.011Z,26.30
2023-03-29T15:12:50.478Z,27.69
2023-03-29T15:15:25.053Z,27.82
2023-03-29T15:17:58.041Z,26.50
2023-03-29T15:20:34.567Z,26.48
2023-03-29T15:23:18.864Z,25.75
2023-03-29T15:25:55.215Z,25.45
2023-03-29T15:28:30.734Z,26.06
2023-03-29T15:31:09.998Z,26.63
2023-03-29T15:33:42.564Z,26.64
2023-03-29T15:36:15.767Z,27.75
2023-03-29T15:38:49.172Z,27.80
2023-03-29T15:41:22.376Z,27.72
2023-03-29T15:43:55.226Z,26.27
2023-03-29T15:46:27.972Z,27.34
2023-03-29T15:49:00.914Z,27.12
2023-03-29T15:51:33.856Z,26.96
2023-03-29T15:54:07.133Z,27.36
2023-03-29T15:56:48.022Z,27.66
2023-03-29T15:59:20.980Z,28.88
2023-03-29T16:01:53.805Z,29.20
2023-03-29T16:04:26.604Z,30.17
2023-03-29T16:07:00.992Z,31.33
2023-03-29T16:09:33.797Z,31.87
2023-03-29T16:12:06.088Z,30.24
2023-03-29T16:14:38.984Z,30.71
2023-03-29T16:17:11.642Z,30.13
2023-03-29T16:19:43.924Z,31.55
2023-03-29T16:22:16.975Z,31.54
2023-03-29T16:24:49.251Z,31.22
2023-03-29T16:27:21.605Z,30.51
2023-03-29T16:29:53.923Z,31.54
2023-03-29T16:32:26.295Z,31.13
2023-03-29T16:34:58.670Z,31.36
2023-03-29T16:37:31.678Z,31.66
2023-03-29T16:40:06.614Z,32.18
2023-03-29T16:42:39.209Z,32.33
2023-03-29T16:45:13.414Z,32.11
2023-03-29T16:47:45.989Z,32.61
2023-03-29T16:50:19.357Z,32.07
2023-03-29T16:52:52.557Z,33.81
2023-03-29T16:55:25.008Z,33.74
2023-03-29T16:57:57.578Z,33.31
2023-03-29T17:00:32.492Z,33.37
2023-03-29T17:03:05.073Z,33.52
2023-03-29T17:05:40.692Z,33.48
2023-03-29T17:08:13.824Z,33.12
2023-03-29T17:10:46.236Z,34.23
2023-03-29T17:13:19.878Z,33.52
2023-03-29T17:15:53.688Z,33.85
2023-03-29T17:18:27.018Z,34.07
2023-03-29T17:20:59.629Z,34.29
2023-03-29T17:23:32.691Z,33.34
2023-03-29T17:26:06.304Z,34.71
2023-03-29T17:28:38.981Z,34.98
2023-03-29T17:31:11.442Z,33.91
2023-03-29T17:33:46.528Z,34.25
2023-03-29T17:36:23.049Z,36.45
2023-03-29T17:38:56.899Z,36.56
2023-03-29T17:41:30.820Z,35.66
2023-03-29T17:44:03.617Z,35.92
2023-03-29T17:46:37.151Z,37.06
2023-03-29T17:49:09.474Z,36.92
2023-03-29T17:51:41.763Z,36.26
2023-03-29T17:54:15.636Z,36.15
2023-03-29T17:56:48.359Z,35.77
2023-03-29T17:59:20.631Z,36.33
2023-03-29T18:01:53.039Z,36.38
2023-03-29T18:04:25.464Z,38.80
2023-03-29T18:06:58.000Z,38.72
2023-03-29T18:09:31.124Z,39.21
2023-03-29T18:12:03.943Z,39.43
2023-03-29T18:14:36.366Z,40.02
2023-03-29T18:17:08.776Z,39.89
2023-03-29T18:19:41.132Z,39.84
2023-03-29T18:22:13.488Z,40.12
2023-03-29T18:24:47.453Z,40.22
2023-03-29T18:27:19.835Z,40.02
2023-03-29T18:29:54.458Z,40.95
2023-03-29T18:32:26.848Z,41.26
2023-03-29T18:34:59.180Z,40.69
2023-03-29T18:37:31.463Z,40.24
2023-03-29T18:40:07.552Z,40.84
2023-03-29T18:42:39.864Z,42.33
2023-03-29T18:45:12.452Z,41.94
2023-03-29T18:47:46.136Z,41.69
2023-03-29T18:50:18.632Z,42.11
2023-03-29T18:52:50.961Z,42.27
2023-03-29T18:55:23.972Z,42.25
2023-03-29T18:57:56.919Z,42.37
2023-03-29T19:00:29.246Z,42.63
2023-03-29T19:03:02.159Z,44.07
2023-03-29T19:05:37.366Z,43.96
2023-03-29T19:08:09.670Z,44.24
2023-03-29T19:10:42.602Z,45.21
2023-03-29T19:13:14.922Z,45.07
2023-03-29T19:15:47.205Z,45.13
2023-03-29T19:18:19.633Z,46.21
2023-03-29T19:20:53.414Z,46.72
2023-03-29T19:23:27.460Z,46.56
2023-03-29T19:26:02.736Z,46.42
2023-03-29T19:28:35.860Z,47.99
2023-03-29T19:31:08.201Z,49.05
2023-03-29T19:33:40.592Z,49.18
2023-03-29T19:36:12.931Z,49.29
2023-03-29T19:38:45.275Z,48.48
2023-03-29T19:41:18.244Z,48.37
2023-03-29T19:43:50.654Z,48.66
2023-03-29T19:46:22.983Z,49.49
2023-03-29T19:48:55.530Z,49.64
2023-03-29T19:51:27.916Z,49.41
2023-03-29T19:54:00.376Z,49.36
2023-03-29T19:56:34.117Z,48.12
2023-03-29T19:59:08.207Z,49.04
2023-03-29T20:01:41.931Z,49.18
2023-03-29T20:04:14.245Z,49.78
2023-03-29T20:06:46.618Z,48.65
2023-03-29T20:09:18.932Z,49.02
2023-03-29T20:11:51.864Z,51.52
2023-03-29T20:14:24.515Z,50.64
2023-03-29T20:16:56.864Z,50.56
2023-03-29T20:19:29.306Z,52.95
2023-03-29T20:22:02.595Z,52.99
2023-03-29T20:24:35.005Z,50.27
2023-03-29T20:27:07.969Z,49.89
2023-03-29T20:29:40.489Z,49.87
2023-03-29T20:32:12.957Z,51.21
2023-03-29T20:34:45.418Z,50.42
2023-03-29T20:37:17.736Z,49.79
2023-03-29T20:39:50.033Z,47.75
2023-03-29T20:42:23.855Z,47.24
2023-03-29T20:44:56.152Z,47.13
2023-03-29T20:47:28.684Z,44.99
2023-03-29T20:50:03.448Z,44.54
2023-03-29T20:52:35.768Z,44.93
2023-03-29T20:55:08.228Z,44.87
2023-03-29T20:57:41.547Z,43.38
2023-03-29T21:00:14.515Z,43.01
2023-03-29T21:02:47.076Z,44.38
2023-03-29T21:05:19.457Z,44.49
2023-03-29T21:07:53.908Z,44.00
2023-03-29T21:10:27.452Z,45.25
2023-03-29T21:13:01.640Z,44.13
2023-03-29T21:15:33.984Z,44.81
2023-03-29T21:18:06.462Z,46.04
2023-03-29T21:20:38.815Z,44.83
2023-03-29T21:23:11.144Z,46.31
2023-03-29T21:25:43.564Z,45.60
2023-03-29T21:28:16.571Z,45.67
2023-03-29T21:30:48.886Z,45.56
2023-03-29T21:33:21.224Z,47.45
2023-03-29T21:35:53.545Z,46.51
2023-03-29T21:38:25.939Z,46.69
2023-03-29T21:40:59.497Z,47.24
2023-03-29T21:43:32.425Z,47.01
2023-03-29T21:46:05.213Z,47.33
2023-03-29T21:48:37.761Z,45.96
2023-03-29T21:51:10.061Z,47.25
2023-03-29T21:53:42.439Z,46.73
2023-03-29T21:56:15.056Z,47.39
2023-03-29T21:58:47.986Z,46.99
2023-03-29T22:01:20.375Z,47.47
2023-03-29T22:04:01.889Z,46.69
2023-03-29T22:06:34.310Z,46.63
2023-03-29T22:09:06.741Z,46.92
2023-03-29T22:11:39.138Z,46.63
2023-03-29T22:14:12.507Z,47.01
2023-03-29T22:16:45.022Z,47.08
2023-03-29T22:19:17.337Z,47.14
2023-03-29T22:21:50.651Z,47.24
2023-03-29T22:24:22.940Z,47.11
2023-03-29T22:26:55.240Z,46.94
2023-03-29T22:29:28.213Z,46.38
2023-03-29T22:32:00.592Z,46.63
2023-03-29T22:34:33.341Z,45.97
2023-03-29T22:37:05.674Z,47.11
2023-03-29T22:39:37.988Z,47.61
2023-03-29T22:42:10.314Z,48.45
2023-03-29T22:44:43.332Z,47.08
2023-03-29T22:47:15.800Z,47.41
2023-03-29T22:49:48.108Z,47.99
2023-03-29T22:52:20.409Z,47.10
2023-03-29T22:54:52.713Z,47.89
2023-03-29T22:57:25.120Z,48.33
2023-03-29T22:59:58.140Z,47.08
2023-03-29T23:02:30.466Z,47.00
2023-03-29T23:05:02.942Z,48.34
2023-03-29T23:07:36.312Z,48.93
2023-03-29T23:10:09.925Z,48.29
2023-03-29T23:12:42.478Z,49.34
2023-03-29T23:15:16.270Z,48.13
2023-03-29T23:17:48.931Z,48.89
2023-03-29T23:20:21.241Z,48.93
2023-03-29T23:22:53.521Z,49.82
2023-03-29T23:25:26.405Z,50.70
2023-03-29T23:27:58.873Z,50.39
2023-03-29T23:30:35.180Z,49.46
2023-03-29T23:33:09.639Z,50.40
2023-03-29T23:35:43.354Z,50.77
2023-03-29T23:38:15.684Z,50.83
2023-03-29T23:40:55.121Z,51.44
2023-03-29T23:43:31.791Z,51.64
2023-03-29T23:46:06.601Z,53.09
2023-03-29T23:48:39.725Z,52.51
2023-03-29T23:51:12.108Z,52.52
2023-03-29T23:53:44.795Z,52.73
2023-03-29T23:56:17.101Z,52.87
2023-03-29T23:58:49.534Z,52.91
